Latest Coastal Weather Observations for South Johnstone

IDQ60701

Issued at 6:42 am EST Tuesday 27 June 2017 (issued every 10 minutes, with the page automatically refreshed every 10 minutes)

About coastal observations | Map of coastal stations | Coastal observations for QLD | Marine services | Other Formats
Station Details ID: 032037 Name: SOUTH JOHNSTONE EXP STN Lat: -17.61 Lon: 146.00 Height: 18.3 m
Data from the previous 72 hours. | See also: Recent months at South Johnstone
Date/Time
EST
Temp
°C
Wind Pressure Rain since
9am
mm
Weather Cloud Vis
km
Sea
Height
m
Swell
Dir  Spd
kts
Gust
kts
hPa Trend Height
m
Period
s
Dir
27/06:30am 18.7 W 1 4 1018.1 - 2.8 - - - - - - -
27/06:00am 18.6 WNW 2 5 1017.9 - 2.8 - - - - - - -
27/05:30am 18.8 W 3 4 1018.0 - 2.8 - - - - - - -
27/05:00am 19.1 CALM 0 0 1018.0 - 2.8 - - - - - - -
27/04:30am 19.1 WSW 1 3 1018.0 - 2.8 - - - - - - -
27/04:00am 19.4 WSW 5 10 1018.0 - 2.8 - - - - - - -
27/03:30am 19.6 CALM 0 0 1018.0 - 2.8 - - - - - - -
27/03:00am 19.7 CALM 0 0 1018.0 - 2.8 - - - - - - -
27/02:30am 19.8 SE 7 11 1018.5 - 2.6 - - - - - - -
27/02:00am 20.9 ESE 4 8 1018.5 - 2.0 - - - - - - -
27/01:30am 21.5 SSW 5 7 1018.6 - 1.0 - - - - - - -
27/01:00am 21.2 S 4 6 1018.9 - 1.0 - - - - - - -
27/12:30am 21.4 S 4 7 1019.1 - 1.0 - - - - - - -
27/12:00am 21.4 S 4 6 1019.1 - 1.0 - - - - - - -
 
Date/Time
EST
Temp
°C
Wind Pressure Rain since
9am
mm
Weather Cloud Vis
km
Sea
Height
m
Swell
Dir  Spd
kts
Gust
kts
hPa Trend Height
m
Period
s
Dir
26/11:30pm 21.4 S 4 6 1019.4 - 1.0 - - - - - - -
26/11:00pm 21.8 S 5 8 1019.6 - 1.0 - - - - - - -
26/10:30pm 21.6 SSE 4 7 1019.5 - 1.0 - - - - - - -
26/10:00pm 21.8 S 6 9 1019.6 - 1.0 - - - - - - -
26/09:30pm 21.8 S 5 10 1019.5 - 1.0 - - - - - - -
26/09:00pm 21.6 S 5 8 1019.1 - 1.0 - - - - - - -
26/08:30pm 21.4 S 4 7 1018.9 - 1.0 - - - - - - -
26/08:00pm 21.3 S 5 8 1018.8 - 1.0 - - - - - - -
26/07:30pm 20.9 SE 1 5 1018.4 - 1.0 - - - - - - -
26/07:00pm 20.9 CALM 0 0 1018.3 - 1.0 - - - - - - -
26/06:30pm 21.2 SSE 4 7 1018.1 - 1.0 - - - - - - -
26/06:00pm 21.6 SSE 5 8 1017.7 - 0.6 - - - - - - -
26/05:30pm 21.7 SSE 6 8 1017.8 - 0.6 - - - - - - -
26/05:00pm 21.7 S 7 10 1017.6 - 0.4 - - - - - - -
26/04:30pm 22.0 S 8 14 1017.6 - 0.4 - - - - - - -
26/04:00pm 22.6 SSE 7 11 1017.4 - 0.2 - - - - - - -
26/03:30pm 23.4 SSE 6 11 1017.2 - 0.2 - - - - - - -
26/03:00pm 23.3 SSE 9 14 1017.2 - 0.2 - - - - - - -
26/02:30pm 23.5 SSE 8 13 1017.3 - 0.2 - - - - - - -
26/02:00pm 23.6 SE 8 14 1017.4 - 0.2 - - - - - - -
26/01:30pm 23.7 SSE 7 14 1017.7 - 0.2 - - - - - - -
26/01:00pm 23.9 SE 7 11 1018.1 - 0.2 - - - - - - -
26/12:30pm 24.1 SE 8 13 1018.4 - 0.2 - - - - - - -
26/12:00pm 24.4 SE 8 13 1018.7 - 0.2 - - - - - - -
26/11:30am 23.5 SSE 8 12 1019.0 - 0.2 - - - - - - -
26/11:00am 23.0 S 6 9 1019.1 - 0.2 - - - - - - -
26/10:30am 22.2 SSE 5 9 1019.4 - 0.0 - - - - - - -
26/10:00am 22.5 S 6 11 1019.3 - 0.0 - - - - - - -
26/09:30am 21.9 SSE 4 8 1019.1 - 0.0 - - - - - - -
26/09:00am 20.1 CALM 0 3 1018.7 - 0.2 - - - - - - -
26/08:30am 18.6 CALM 0 4 1018.5 - 0.2 - - - - - - -
26/08:00am 17.9 CALM 0 0 1018.2 - 0.2 - - - - - - -
26/07:30am 17.2 CALM 0 0 1017.8 - 0.2 - - - - - - -
26/07:00am 16.9 CALM 0 4 1017.6 - 0.2 - - - - - - -
26/06:30am 16.9 W 2 4 1017.3 - 0.2 - - - - - - -
26/06:00am 16.9 WSW 3 5 1016.9 - 0.2 - - - - - - -
26/05:30am 17.0 CALM 0 0 1016.9 - 0.2 - - - - - - -
26/05:00am 17.1 CALM 0 3 1016.9 - 0.2 - - - - - - -
26/04:30am 17.2 N 1 4 1016.8 - 0.2 - - - - - - -
26/04:00am 17.1 CALM 0 0 1016.6 - 0.2 - - - - - - -
26/03:30am 16.9 CALM 0 0 1016.9 - 0.2 - - - - - - -
26/03:00am 17.1 CALM 0 1 1016.9 - 0.2 - - - - - - -
26/02:30am 17.0 CALM 0 0 1017.1 - 0.2 - - - - - - -
26/02:00am 17.0 CALM 0 2 1017.3 - 0.0 - - - - - - -
26/01:30am 16.9 CALM 0 0 1017.5 - 0.0 - - - - - - -
26/01:00am 16.9 CALM 0 2 1017.8 - 0.0 - - - - - - -
26/12:30am 16.8 WSW 5 6 1017.9 - 0.0 - - - - - - -
26/12:00am 16.8 W 5 7 1018.0 - 0.0 - - - - - - -
 
Date/Time
EST
Temp
°C
Wind Pressure Rain since
9am
mm
Weather Cloud Vis
km
Sea
Height
m
Swell
Dir  Spd
kts
Gust
kts
hPa Trend Height
m
Period
s
Dir
25/11:30pm 17.0 W 2 5 1018.3 - 0.0 - - - - - - -
25/11:00pm 17.2 W 1 4 1018.2 - 0.0 - - - - - - -
25/10:30pm 17.5 W 1 5 1018.4 - 0.0 - - - - - - -
25/10:00pm 17.8 W 4 7 1018.5 - 0.0 - - - - - - -
25/09:30pm 18.2 WSW 6 8 1018.4 - 0.0 - - - - - - -
25/09:00pm 18.7 WSW 6 7 1018.1 - 0.0 - - - - - - -
25/08:30pm 19.1 WSW 6 8 1018.1 - 0.0 - - - - - - -
25/08:00pm 19.8 WSW 5 6 1017.7 - 0.0 - - - - - - -
25/07:30pm 20.8 SW 1 5 1017.4 - 0.0 - - - - - - -
25/07:00pm 21.4 SSW 2 5 1016.9 - 0.0 - - - - - - -
25/06:30pm 21.5 SSW 3 5 1016.7 - 0.0 - - - - - - -
25/06:00pm 21.7 SSW 1 3 1016.3 - 0.0 - - - - - - -
25/05:30pm 22.1 SW 2 5 1016.3 - 0.0 - - - - - - -
25/05:00pm 22.4 SSW 5 9 1016.0 - 0.0 - - - - - - -
25/04:30pm 22.8 SSE 6 11 1016.0 - 0.0 - - - - - - -
25/04:00pm 23.0 SE 9 15 1015.9 - 0.0 - - - - - - -
25/03:30pm 23.3 SE 8 13 1015.8 - 0.0 - - - - - - -
25/03:00pm 23.6 SE 9 15 1015.6 - 0.0 - - - - - - -
25/02:30pm 24.2 SSE 9 15 1015.7 - 0.0 - - - - - - -
25/02:00pm 23.1 SSE 8 11 1015.9 - 0.0 - - - - - - -
25/01:30pm 24.2 S 7 12 1016.0 - 0.0 - - - - - - -
25/01:00pm 23.6 S 7 12 1016.4 - 0.0 - - - - - - -
25/12:30pm 24.5 S 6 9 1016.7 - 0.0 - - - - - - -
25/12:00pm 24.0 S 7 11 1017.2 - 0.0 - - - - - - -
25/11:30am 23.8 S 6 9 1017.7 - 0.0 - - - - - - -
25/11:00am 23.1 S 7 10 1018.0 - 0.0 - - - - - - -
25/10:30am 23.2 SSE 5 8 1018.1 - 0.0 - - - - - - -
25/10:00am 22.6 S 4 6 1018.1 - 0.0 - - - - - - -
25/09:30am 22.2 CALM 0 3 1018.1 - 0.0 - - - - - - -
25/09:00am 20.4 CALM 0 0 1017.9 - 4.2 - - - - - - -
25/08:30am 19.5 CALM 0 0 1017.8 - 4.2 - - - - - - -
25/08:00am 18.8 WSW 1 3 1017.3 - 4.2 - - - - - - -
25/07:30am 18.6 CALM 0 0 1017.1 - 4.2 - - - - - - -
25/07:00am 18.2 CALM 0 0 1016.7 - 4.2 - - - - - - -
25/06:30am 18.3 SW 3 5 1016.4 - 4.2 - - - - - - -
25/06:00am 18.2 WSW 3 6 1016.0 - 4.2 - - - - - - -
25/05:30am 18.5 WSW 5 7 1015.9 - 4.2 - - - - - - -
25/05:00am 18.6 WSW 4 8 1015.8 - 4.2 - - - - - - -
25/04:30am 18.6 WSW 5 6 1016.0 - 4.0 - - - - - - -
25/04:00am 18.7 NNW 1 4 1016.0 - 4.0 - - - - - - -
25/03:30am 18.9 SW 3 6 1016.1 - 4.0 - - - - - - -
25/03:00am 19.0 SSW 5 7 1016.2 - 3.8 - - - - - - -
25/02:30am 18.8 SE 3 5 1016.4 - 1.4 - - - - - - -
25/02:00am 18.5 WSW 4 7 1016.3 - 0.6 - - - - - - -
25/01:30am 18.7 W 2 6 1016.7 - 0.6 - - - - - - -
25/01:00am 18.9 CALM 0 0 1016.9 - 0.6 - - - - - - -
25/12:30am 19.0 CALM 0 0 1017.1 - 0.6 - - - - - - -
25/12:00am 19.0 WNW 2 4 1017.1 - 0.6 - - - - - - -
 
Date/Time
EST
Temp
°C
Wind Pressure Rain since
9am
mm
Weather Cloud Vis
km
Sea
Height
m
Swell
Dir  Spd
kts
Gust
kts
hPa Trend Height
m
Period
s
Dir
24/11:30pm 19.6 CALM 0 3 1017.2 - 0.6 - - - - - - -
24/11:00pm 20.2 S 4 7 1017.2 - 0.6 - - - - - - -
24/10:30pm 19.2 CALM 0 0 1017.3 - 0.6 - - - - - - -
24/10:00pm 19.2 CALM 0 4 1017.4 - 0.6 - - - - - - -
24/09:30pm 19.5 SW 5 7 1017.3 - 0.6 - - - - - - -
24/09:00pm 19.8 SW 3 4 1017.1 - 0.6 - - - - - - -
24/08:30pm 19.6 WNW 1 5 1017.1 - 0.4 - - - - - - -
24/08:00pm 20.1 S 6 11 1016.8 - 0.2 - - - - - - -
24/07:30pm 20.3 SSE 3 6 1016.7 - 0.2 - - - - - - -
24/07:00pm 20.0 CALM 0 0 1016.6 - 0.2 - - - - - - -
24/06:30pm 20.1 SSE 1 6 1016.4 - 0.2 - - - - - - -
24/06:00pm 20.5 SW 5 7 1016.1 - 0.2 - - - - - - -
24/05:30pm 20.8 SSW 10 15 1015.7 - 0.2 - - - - - - -
24/05:00pm 21.1 S 8 15 1015.7 - 0.2 - - - - - - -
24/04:30pm 21.7 SSE 6 11 1015.6 - 0.2 - - - - - - -
24/04:00pm 21.9 SSE 9 13 1015.6 - 0.2 - - - - - - -
24/03:30pm 22.2 SSE 8 13 1015.4 - 0.2 - - - - - - -
24/03:00pm 22.5 SSE 10 16 1015.3 - 0.2 - - - - - - -
24/02:30pm 23.1 SSE 9 16 1015.2 - 0.2 - - - - - - -
24/02:00pm 23.7 SSE 9 14 1015.2 - 0.2 - - - - - - -
24/01:30pm 23.9 SSE 9 16 1015.3 - 0.2 - - - - - - -
24/01:00pm 24.4 S 9 13 1015.7 - 0.2 - - - - - - -
24/12:30pm 23.8 SSE 9 14 1016.1 - 0.2 - - - - - - -
24/12:00pm 23.5 SSE 9 15 1016.2 - 0.2 - - - - - - -
24/11:30am 23.4 S 8 13 1016.5 - 0.2 - - - - - - -
24/11:00am 23.2 SSE 7 11 1016.8 - 0.2 - - - - - - -
24/10:30am 23.1 S 7 11 1017.0 - 0.2 - - - - - - -
24/10:00am 22.9 S 4 7 1017.0 - 0.0 - - - - - - -
24/09:30am 22.2 S 5 8 1017.2 - 0.0 - - - - - - -
24/09:00am 21.2 SSW 2 5 1017.0 - 28.8 - - - - - - -
24/08:30am 20.0 S 4 7 1016.9 - 28.8 - - - - - - -
24/08:00am 19.6 S 1 5 1016.5 - 28.6 - - - - - - -
24/07:30am 19.1 CALM 0 3 1016.4 - 28.6 - - - - - - -
24/07:00am 19.0 SW 5 8 1016.2 - 28.6 - - - - - - -

Other Formats:

Comma delimited format used in spreadsheet applications
http://www.bom.gov.au/fwo/IDQ60701/IDQ60701.95292.axf

JavaScript Object Notation format (JSON) in row-major order
http://www.bom.gov.au/fwo/IDQ60701/IDQ60701.95292.json